»·PEaware :: APW5266 KONT-TNCM

APW5266 :: KONT-TNCM

FLIGHT INFORMATION

Flight Status: Arrived
Operator:
Arrow Cargo
More flights by this operator :: More flights under this callsign
Pilot: Alan J. (5709)
Aircraft: LOCKHEED L-1011 TRI-STAR
(L101)
More flights by this aircraft type
Origin: KONT Ontario Intl
United States
Destination: TNCM Princess Juliana Intl
Netherlands Antilles
More flights between these airports :: More routes between these airports
Route: +NIKKL1 TRM J169 BLH ABI CEW SZW ORL PHK PBI ZBV DDP MALIE SLUGO ULUBA1
File this flight plan on PilotEdge
Remarks:
Altitude:
(Current/Filed)
35,000ft
Speed:
(Current/Filed)
490kts
Departed: 19-Jun-16 12:15 PM
Arrived: 19-Jun-16 01:36 PM
Distance/Time
Traveled:
3052nm/1:20
Distance/Time
To Go:
Arrived

Flight Plot

Page will automatically refresh every two minutes.

Flight plan parsing failed; only flown route is shown


Map Options




Map Legend


Flown Route
Filed Route
Departure Airport
Arrival Airport
Navaid (VOR, NDB)
Fix

Horizontal Profiles

Position Reports

Time Latitude Longitude Heading Altitude Ground
Speed
19-Jun-16 11:30 34.060286 -117.599619 359 960ft 0kts
19-Jun-16 11:31 34.060286 -117.599619 359 960ft 0kts
19-Jun-16 11:32 34.060286 -117.599619 359 960ft 0kts
19-Jun-16 11:33 34.060286 -117.599619 359 960ft 0kts
19-Jun-16 11:34 34.060286 -117.599619 359 960ft 0kts
19-Jun-16 11:35 34.060286 -117.599619 359 960ft 0kts
19-Jun-16 11:36 34.060286 -117.599619 359 960ft 0kts
19-Jun-16 11:37 34.060286 -117.599619 359 960ft 0kts
19-Jun-16 11:38 34.060286 -117.599619 359 960ft 0kts
19-Jun-16 11:39 34.060286 -117.599619 359 960ft 0kts
19-Jun-16 11:40 34.060286 -117.599619 359 960ft 0kts
19-Jun-16 11:41 34.060286 -117.599619 359 960ft 0kts
19-Jun-16 11:42 34.060286 -117.599619 359 960ft 0kts
19-Jun-16 11:43 34.060286 -117.599619 359 960ft 0kts
19-Jun-16 11:44 34.060286 -117.599619 359 960ft 0kts
19-Jun-16 11:45 34.060286 -117.599619 359 960ft 0kts
19-Jun-16 11:46 34.060286 -117.599619 359 960ft 0kts
19-Jun-16 11:47 34.060286 -117.599619 359 960ft 0kts
19-Jun-16 11:48 34.060286 -117.599619 359 960ft 0kts
19-Jun-16 11:49 34.060286 -117.599619 359 960ft 0kts
19-Jun-16 11:50 34.060286 -117.599619 359 960ft 0kts
19-Jun-16 11:51 34.060286 -117.599619 359 960ft 0kts
19-Jun-16 11:52 34.060286 -117.599619 359 960ft 0kts
19-Jun-16 11:53 34.060286 -117.599619 359 960ft 0kts
19-Jun-16 11:54 34.060286 -117.599619 359 960ft 0kts
19-Jun-16 11:55 34.060286 -117.599619 359 960ft 0kts
19-Jun-16 11:56 34.060286 -117.599619 359 960ft 0kts
19-Jun-16 11:57 34.060286 -117.599619 359 960ft 0kts
19-Jun-16 11:58 34.059724 -117.599617 359 960ft 2kts
19-Jun-16 11:59 34.059261 -117.599912 80 960ft 2kts
19-Jun-16 12:00 34.059250 -117.600020 89 960ft 0kts
19-Jun-16 12:01 34.059250 -117.600020 89 960ft 0kts
19-Jun-16 12:02 34.059250 -117.600020 89 960ft 0kts
19-Jun-16 12:03 34.059250 -117.599553 90 960ft 0kts
19-Jun-16 12:04 34.059250 -117.599552 90 960ft 0kts
19-Jun-16 12:05 34.059250 -117.599365 90 960ft 3kts
19-Jun-16 12:06 34.059267 -117.596456 88 960ft 5kts
19-Jun-16 12:07 34.058335 -117.595658 178 960ft 7kts
19-Jun-16 12:08 34.057935 -117.591307 90 960ft 23kts
19-Jun-16 12:09 34.057934 -117.583201 90 960ft 19kts
19-Jun-16 12:10 34.057814 -117.582857 154 960ft 0kts
19-Jun-16 12:11 34.056903 -117.583258 264 960ft 0kts
19-Jun-16 12:12 34.056843 -117.602591 269 962ft 145kts
19-Jun-16 12:13 34.041365 -117.649362 195 1819ft 176kts
19-Jun-16 12:14 34.002213 -117.620493 138 3253ft 181kts
19-Jun-16 12:15 33.960990 -117.576077 139 4963ft 223kts
19-Jun-16 12:16 33.908287 -117.519516 146 7363ft 267kts
19-Jun-16 12:17 33.842155 -117.467171 145 9655ft 302kts
19-Jun-16 12:18 33.768483 -117.403564 146 11633ft 360kts
19-Jun-16 12:19 33.717502 -117.291936 91 13814ft 435kts
19-Jun-16 12:20 33.716128 -117.147895 103 14764ft 427kts
19-Jun-16 12:21 33.702289 -117.013763 98 17569ft 394kts
19-Jun-16 12:22 33.691134 -116.880959 99 20406ft 399kts
19-Jun-16 12:23 33.679383 -116.748539 98 22899ft 401kts
19-Jun-16 12:24 33.667668 -116.611642 99 24433ft 420kts
19-Jun-16 12:25 33.655270 -116.467850 99 25489ft 444kts
19-Jun-16 12:26 33.641912 -116.316993 98 26511ft 462kts
19-Jun-16 12:27 33.628374 -116.162923 99 27929ft 463kts
19-Jun-16 12:28 33.624291 -116.008954 93 29324ft 462kts
19-Jun-16 12:29 33.622482 -115.854030 93 30325ft 464kts
19-Jun-16 12:30 33.619396 -115.698462 94 31114ft 468kts
19-Jun-16 12:31 33.615933 -115.541373 94 31815ft 471kts
19-Jun-16 12:32 33.612370 -115.383782 94 32514ft 472kts
19-Jun-16 12:33 33.608535 -115.225884 94 33064ft 474kts
19-Jun-16 12:34 33.604523 -115.067247 94 33563ft 475kts
19-Jun-16 12:35 33.600256 -114.909002 94 34060ft 475kts
19-Jun-16 12:36 33.595871 -114.750530 94 34554ft 473kts
19-Jun-16 12:37 33.593464 -114.592804 93 34942ft 474kts
19-Jun-16 12:38 33.590951 -114.432537 93 34864ft 483kts
19-Jun-16 12:39 33.588106 -114.269864 93 34871ft 489kts
19-Jun-16 12:40 33.584940 -114.105900 93 34876ft 492kts
19-Jun-16 12:41 33.582116 -113.969045 93 34878ft 494kts
19-Jun-16 12:42 33.578027 -113.776598 93 34862ft 495kts
19-Jun-16 12:43 33.574895 -113.638669 93 34862ft 495kts
19-Jun-16 12:44 33.571009 -113.473155 93 34863ft 496kts
19-Jun-16 12:45 33.566857 -113.307091 93 34669ft 502kts
19-Jun-16 12:46 33.561038 -113.137719 99 33867ft 510kts
19-Jun-16 12:47 33.536124 -112.971902 87 33864ft 506kts
19-Jun-16 12:48 33.549906 -112.803846 89 33866ft 505kts
19-Jun-16 12:49 33.547995 -112.635945 92 34226ft 497kts
19-Jun-16 12:50 33.542897 -112.471915 93 34859ft 492kts
19-Jun-16 12:51 32.476351 -99.782826 97 34942ft 498kts
19-Jun-16 12:52 32.463741 -99.622598 94 35168ft 480kts
19-Jun-16 12:53 30.814258 -86.591136 92 35236ft 472kts
19-Jun-16 12:54 30.799775 -86.437615 94 35264ft 480kts
19-Jun-16 12:55 30.504484 -84.246168 132 35260ft 496kts
19-Jun-16 12:56 28.525159 -81.311100 130 35082ft 499kts
19-Jun-16 12:57 28.400253 -81.249444 178 35219ft 507kts
19-Jun-16 12:58 26.732436 -80.674828 154 35130ft 505kts
19-Jun-16 12:59 26.645232 -80.560896 101 35143ft 490kts
19-Jun-16 13:00 26.671904 -80.418854 55 35151ft 475kts
19-Jun-16 13:01 26.707029 -80.277281 90 35150ft 487kts
19-Jun-16 13:02 26.683104 -80.127512 111 35139ft 494kts
19-Jun-16 13:03 26.590944 -80.014075 144 35154ft 503kts
19-Jun-16 13:04 25.635549 -79.210964 112 35107ft 495kts
19-Jun-16 13:05 18.458751 -66.379657 106 35046ft 496kts
19-Jun-16 13:06 18.463769 -66.235827 81 35076ft 503kts
19-Jun-16 13:07 18.487695 -65.145339 98 35009ft 503kts
19-Jun-16 13:08 18.475635 -64.996836 96 33413ft 507kts
19-Jun-16 13:09 18.466331 -64.851544 96 30710ft 484kts
19-Jun-16 13:10 18.457701 -64.713257 95 28005ft 460kts
19-Jun-16 13:11 18.449884 -64.582086 94 25307ft 438kts
19-Jun-16 13:12 18.441782 -64.457187 94 22603ft 416kts
19-Jun-16 13:13 18.434063 -64.338477 94 19899ft 395kts
19-Jun-16 13:14 18.427633 -64.240772 94 17567ft 379kts
19-Jun-16 13:15 18.420368 -64.132717 94 15359ft 357kts
19-Jun-16 13:16 18.414169 -64.035644 94 13539ft 313kts
19-Jun-16 13:17 18.408282 -63.944893 95 12072ft 307kts
19-Jun-16 13:18 18.402050 -63.854981 95 12054ft 307kts
19-Jun-16 13:19 18.395940 -63.765091 95 12053ft 307kts
19-Jun-16 13:20 18.389842 -63.675643 95 11604ft 296kts
19-Jun-16 13:21 18.355303 -63.608939 152 9776ft 264kts
19-Jun-16 13:22 18.291057 -63.573733 144 7982ft 259kts
19-Jun-16 13:23 18.232387 -63.532023 142 6178ft 249kts
19-Jun-16 13:24 18.175741 -63.491690 142 4376ft 242kts
19-Jun-16 13:25 18.120292 -63.452287 142 4056ft 240kts
19-Jun-16 13:26 18.064738 -63.412789 142 4056ft 240kts
19-Jun-16 13:27 18.012807 -63.369424 119 4054ft 237kts
19-Jun-16 13:28 18.012790 -63.302389 79 4071ft 236kts
19-Jun-16 13:29 18.025538 -63.242127 85 2818ft 190kts
19-Jun-16 13:30 18.029507 -63.197773 88 1410ft 156kts
19-Jun-16 13:31 18.034556 -63.155228 85 654ft 128kts
19-Jun-16 13:32 18.039558 -63.118530 83 31ft 123kts
19-Jun-16 13:33 18.041773 -63.102350 81 29ft 19kts
19-Jun-16 13:34 18.042122 -63.100297 258 29ft 10kts
19-Jun-16 13:35 18.040726 -63.109791 261 29ft 39kts
19-Jun-16 13:36 18.041431 -63.113540 285 29ft 4kts
19-Jun-16 13:37 18.041470 -63.113674 286 29ft 0kts
19-Jun-16 13:38 18.041470 -63.113674 286 29ft 0kts
19-Jun-16 13:39 18.041470 -63.113674 286 29ft 0kts
19-Jun-16 13:40 18.041470 -63.113674 286 16ft 0kts

Navigation Log

Ident Type
Flight plan parsing failed, navigation log unavailable